Kezdőlap
METAR-TAF:

METAR-TAF

Repülőterek :

Air_Force_Base

Plattsburgh, New York, Amerikai Egyesült Államok

földrajzi szélesség: 44-39N, földrajzi hosszúság: 073-28W, magasság: 72 m

Jelenlegi meteorológiai megfigyelések

A jelentés 58 perccel ezelõtt készült, 06:53 UTC
Szélcsend
Hőmérséklet 14°C
Páratartalom 94%
Légköri nyomás 1019 hPa
Látótávolság: 16.1 km
Derült ég

METAR: KPBG 260653Z AUTO 00000KT 10SM CLR 14/13 A3009 RMK AO2 SLP190 T01440133

Idő: 03:51 (07:51 UTC)

Előrejelzés

A jelentés 2 órával és 16 perccel ezelõtt készült, 05:35 UTC
Az előrejelzés 26-én 06 óra UTC és 27-én 06 óra UTC között érvényes
Dél-délkeleti szél 5 kt
Látótávolság: 10 km
Szórványos felhőzet 9000 lábon

TAF: KPBG 260535Z 2606/2706 16005KT P6SM SCT090

Meteorológiai megfigyelések és előrejelzések több, mint 4000 repülőtéren (METAR és TAF jelentéseket).

A térképen piros és sárga pontok jelzik az elérhető meteorológiai állomásokat.

Mozgassa az egeret a pont fölött, hogy megjelenjen az állomás neve.

Azután kattintson az időjárási megfigyelések és előrejelzések megtekintéséhez.

A térkép megváltoztatása: kattintson a fekete keresztel jelölt zöld gombra ráközelítéshez, a vonallal jelölt zöld gombra távolításhoz, vagy a zöld nyilakra a szomszédos térképek eléréséhez.


METAR-TAF: